sensor_id;sensor_type;location;lat;lon;timestamp;pressure;altitude;pressure_sealevel;temperature;humidity
24858;BME280;12935;50.782;6.074;2023-06-10T00:01:28;99285.69;;;19.94;78.09
24858;BME280;12935;50.782;6.074;2023-06-10T00:03:53;99276.13;;;19.86;78.73
24858;BME280;12935;50.782;6.074;2023-06-10T00:06:19;99274.13;;;19.77;79.60
24858;BME280;12935;50.782;6.074;2023-06-10T00:08:44;99279.06;;;19.73;80.54
24858;BME280;12935;50.782;6.074;2023-06-10T00:11:12;99274.28;;;19.74;80.35
24858;BME280;12935;50.782;6.074;2023-06-10T00:13:37;99279.84;;;19.74;80.37
24858;BME280;12935;50.782;6.074;2023-06-10T00:16:03;99280.44;;;19.69;80.63
24858;BME280;12935;50.782;6.074;2023-06-10T00:18:28;99278.28;;;19.64;81.43
24858;BME280;12935;50.782;6.074;2023-06-10T00:20:56;99279.53;;;19.63;81.80
24858;BME280;12935;50.782;6.074;2023-06-10T00:23:29;99279.06;;;19.64;82.21
24858;BME280;12935;50.782;6.074;2023-06-10T00:25:59;99275.66;;;19.60;82.63
24858;BME280;12935;50.782;6.074;2023-06-10T00:28:24;99287.63;;;19.48;82.62
24858;BME280;12935;50.782;6.074;2023-06-10T00:30:50;99285.91;;;19.41;83.88
24858;BME280;12935;50.782;6.074;2023-06-10T00:33:15;99278.06;;;19.40;83.63
24858;BME280;12935;50.782;6.074;2023-06-10T00:35:41;99276.38;;;19.33;83.96
24858;BME280;12935;50.782;6.074;2023-06-10T00:38:06;99281.91;;;19.33;84.12
24858;BME280;12935;50.782;6.074;2023-06-10T00:40:33;99282.38;;;19.32;84.60
24858;BME280;12935;50.782;6.074;2023-06-10T00:43:04;99277.44;;;19.36;85.07
24858;BME280;12935;50.782;6.074;2023-06-10T00:45:29;99285.28;;;19.37;84.84
24858;BME280;12935;50.782;6.074;2023-06-10T00:47:55;99282.81;;;19.39;85.86
24858;BME280;12935;50.782;6.074;2023-06-10T00:50:21;99277.75;;;19.38;85.60
24858;BME280;12935;50.782;6.074;2023-06-10T00:52:46;99286.81;;;19.38;86.07
24858;BME280;12935;50.782;6.074;2023-06-10T00:55:14;99276.50;;;19.39;86.47
24858;BME280;12935;50.782;6.074;2023-06-10T00:57:41;99284.50;;;19.37;85.93
24858;BME280;12935;50.782;6.074;2023-06-10T01:00:10;99279.44;;;19.35;86.05
24858;BME280;12935;50.782;6.074;2023-06-10T01:02:35;99282.03;;;19.30;85.70
24858;BME280;12935;50.782;6.074;2023-06-10T01:05:01;99285.00;;;19.35;85.28
24858;BME280;12935;50.782;6.074;2023-06-10T01:10:35;99274.22;;;19.46;83.05
24858;BME280;12935;50.782;6.074;2023-06-10T01:13:03;99281.50;;;19.53;82.63
24858;BME280;12935;50.782;6.074;2023-06-10T01:15:32;99275.50;;;19.54;82.74
24858;BME280;12935;50.782;6.074;2023-06-10T01:18:03;99277.03;;;19.55;82.80
24858;BME280;12935;50.782;6.074;2023-06-10T01:20:30;99281.31;;;19.47;83.85
24858;BME280;12935;50.782;6.074;2023-06-10T01:23:01;99281.16;;;19.42;84.60
24858;BME280;12935;50.782;6.074;2023-06-10T01:25:28;99276.69;;;19.44;84.97
24858;BME280;12935;50.782;6.074;2023-06-10T01:28:14;99282.38;;;19.32;85.40
24858;BME280;12935;50.782;6.074;2023-06-10T01:33:45;99278.31;;;19.23;86.05
24858;BME280;12935;50.782;6.074;2023-06-10T01:36:13;99280.00;;;19.21;86.02
24858;BME280;12935;50.782;6.074;2023-06-10T01:38:42;99279.88;;;19.24;86.73
24858;BME280;12935;50.782;6.074;2023-06-10T01:41:08;99280.31;;;19.23;86.77
24858;BME280;12935;50.782;6.074;2023-06-10T01:43:34;99276.31;;;19.24;86.55
24858;BME280;12935;50.782;6.074;2023-06-10T01:46:00;99275.88;;;19.25;86.55
24858;BME280;12935;50.782;6.074;2023-06-10T01:48:26;99280.31;;;19.23;87.12
24858;BME280;12935;50.782;6.074;2023-06-10T01:50:52;99278.19;;;19.18;87.01
24858;BME280;12935;50.782;6.074;2023-06-10T01:53:17;99275.22;;;19.12;87.97
24858;BME280;12935;50.782;6.074;2023-06-10T01:55:42;99277.09;;;19.15;87.81
24858;BME280;12935;50.782;6.074;2023-06-10T01:58:08;99271.88;;;19.17;88.00
24858;BME280;12935;50.782;6.074;2023-06-10T02:00:33;99275.41;;;19.18;88.15
24858;BME280;12935;50.782;6.074;2023-06-10T02:02:58;99282.00;;;19.20;88.29
24858;BME280;12935;50.782;6.074;2023-06-10T02:05:24;99285.84;;;19.14;88.50
24858;BME280;12935;50.782;6.074;2023-06-10T02:07:49;99280.59;;;19.07;88.89
24858;BME280;12935;50.782;6.074;2023-06-10T02:10:15;99293.66;;;19.06;89.02
24858;BME280;12935;50.782;6.074;2023-06-10T02:12:40;99284.91;;;19.08;89.60
24858;BME280;12935;50.782;6.074;2023-06-10T02:15:05;99283.34;;;19.07;89.61
24858;BME280;12935;50.782;6.074;2023-06-10T02:17:31;99292.13;;;19.05;89.23
24858;BME280;12935;50.782;6.074;2023-06-10T02:19:57;99288.13;;;19.06;89.01
24858;BME280;12935;50.782;6.074;2023-06-10T02:22:24;99281.03;;;19.05;89.23
24858;BME280;12935;50.782;6.074;2023-06-10T02:24:50;99289.34;;;19.05;88.82
24858;BME280;12935;50.782;6.074;2023-06-10T02:27:16;99288.13;;;19.06;89.30
24858;BME280;12935;50.782;6.074;2023-06-10T02:29:41;99289.34;;;19.05;89.09
24858;BME280;12935;50.782;6.074;2023-06-10T02:32:07;99290.59;;;19.04;89.37
24858;BME280;12935;50.782;6.074;2023-06-10T02:34:32;99292.41;;;18.98;89.87
24858;BME280;12935;50.782;6.074;2023-06-10T02:36:58;99292.72;;;19.00;90.26
24858;BME280;12935;50.782;6.074;2023-06-10T02:39:24;99291.97;;;19.00;90.29
24858;BME280;12935;50.782;6.074;2023-06-10T02:41:49;99290.72;;;19.01;89.89
24858;BME280;12935;50.782;6.074;2023-06-10T02:44:15;99286.88;;;18.98;89.77
24858;BME280;12935;50.782;6.074;2023-06-10T02:46:40;99292.41;;;18.98;90.16
24858;BME280;12935;50.782;6.074;2023-06-10T02:49:05;99284.69;;;18.93;90.48
24858;BME280;12935;50.782;6.074;2023-06-10T02:51:30;99289.00;;;18.94;91.00
24858;BME280;12935;50.782;6.074;2023-06-10T02:53:56;99291.44;;;18.92;91.01
24858;BME280;12935;50.782;6.074;2023-06-10T02:56:21;99287.47;;;18.93;91.16
24858;BME280;12935;50.782;6.074;2023-06-10T02:58:46;99291.00;;;18.93;90.48
24858;BME280;12935;50.782;6.074;2023-06-10T03:01:13;99285.47;;;18.93;90.99
24858;BME280;12935;50.782;6.074;2023-06-10T03:03:38;99281.00;;;18.87;91.47
24858;BME280;12935;50.782;6.074;2023-06-10T03:06:07;99288.84;;;18.88;92.51
24858;BME280;12935;50.782;6.074;2023-06-10T03:08:33;99290.84;;;18.88;93.24
24858;BME280;12935;50.782;6.074;2023-06-10T03:10:58;99291.56;;;18.79;93.93
24858;BME280;12935;50.782;6.074;2023-06-10T03:13:24;99296.22;;;18.61;95.38
24858;BME280;12935;50.782;6.074;2023-06-10T03:15:49;99294.22;;;18.61;96.07
24858;BME280;12935;50.782;6.074;2023-06-10T03:18:15;99294.03;;;18.55;96.99
24858;BME280;12935;50.782;6.074;2023-06-10T03:20:40;99296.28;;;18.48;97.47
24858;BME280;12935;50.782;6.074;2023-06-10T03:23:05;99296.22;;;18.39;98.64
24858;BME280;12935;50.782;6.074;2023-06-10T03:25:34;99294.81;;;18.34;99.52
24858;BME280;12935;50.782;6.074;2023-06-10T03:28:00;99296.59;;;18.28;100.00
24858;BME280;12935;50.782;6.074;2023-06-10T03:30:29;99300.75;;;18.23;100.00
24858;BME280;12935;50.782;6.074;2023-06-10T03:32:55;99302.78;;;18.10;100.00
24858;BME280;12935;50.782;6.074;2023-06-10T03:35:20;99305.34;;;18.05;100.00
24858;BME280;12935;50.782;6.074;2023-06-10T03:37:45;99308.25;;;18.01;100.00
24858;BME280;12935;50.782;6.074;2023-06-10T03:40:11;99308.56;;;18.03;100.00
24858;BME280;12935;50.782;6.074;2023-06-10T03:42:36;99319.84;;;18.09;100.00
24858;BME280;12935;50.782;6.074;2023-06-10T03:45:02;99310.94;;;18.14;100.00
24858;BME280;12935;50.782;6.074;2023-06-10T03:47:33;99315.38;;;18.11;100.00
24858;BME280;12935;50.782;6.074;2023-06-10T03:50:00;99315.75;;;18.01;100.00
24858;BME280;12935;50.782;6.074;2023-06-10T03:52:25;99313.13;;;17.97;100.00
24858;BME280;12935;50.782;6.074;2023-06-10T03:54:50;99313.25;;;17.94;100.00
24858;BME280;12935;50.782;6.074;2023-06-10T03:57:15;99315.03;;;17.87;100.00
24858;BME280;12935;50.782;6.074;2023-06-10T03:59:41;99318.91;;;17.90;100.00
24858;BME280;12935;50.782;6.074;2023-06-10T04:02:06;99307.31;;;17.82;100.00
24858;BME280;12935;50.782;6.074;2023-06-10T04:04:33;99308.97;;;17.80;100.00
24858;BME280;12935;50.782;6.074;2023-06-10T04:06:58;99314.06;;;17.81;100.00
24858;BME280;12935;50.782;6.074;2023-06-10T04:09:24;99316.81;;;17.81;100.00
24858;BME280;12935;50.782;6.074;2023-06-10T04:11:49;99319.91;;;17.83;100.00
24858;BME280;12935;50.782;6.074;2023-06-10T04:14:14;99321.34;;;17.88;100.00
24858;BME280;12935;50.782;6.074;2023-06-10T04:16:40;99322.44;;;17.91;100.00
24858;BME280;12935;50.782;6.074;2023-06-10T04:19:07;99320.34;;;17.82;100.00
24858;BME280;12935;50.782;6.074;2023-06-10T04:21:32;99325.09;;;17.81;100.00
24858;BME280;12935;50.782;6.074;2023-06-10T04:23:58;99329.41;;;17.82;100.00
24858;BME280;12935;50.782;6.074;2023-06-10T04:26:23;99334.31;;;17.78;100.00
24858;BME280;12935;50.782;6.074;2023-06-10T04:28:48;99331.34;;;17.73;100.00
24858;BME280;12935;50.782;6.074;2023-06-10T04:31:14;99329.47;;;17.70;100.00
24858;BME280;12935;50.782;6.074;2023-06-10T04:33:39;99334.22;;;17.69;100.00
24858;BME280;12935;50.782;6.074;2023-06-10T04:36:05;99338.53;;;17.70;100.00
24858;BME280;12935;50.782;6.074;2023-06-10T04:38:32;99334.09;;;17.73;100.00
24858;BME280;12935;50.782;6.074;2023-06-10T04:40:57;99339.38;;;17.80;100.00
24858;BME280;12935;50.782;6.074;2023-06-10T04:43:22;99337.59;;;17.86;100.00
24858;BME280;12935;50.782;6.074;2023-06-10T04:45:47;99337.16;;;17.87;100.00
24858;BME280;12935;50.782;6.074;2023-06-10T04:48:13;99329.06;;;17.93;100.00
24858;BME280;12935;50.782;6.074;2023-06-10T04:50:39;99329.47;;;18.04;100.00
24858;BME280;12935;50.782;6.074;2023-06-10T04:53:04;99331.06;;;18.14;100.00
24858;BME280;12935;50.782;6.074;2023-06-10T04:55:29;99332.13;;;18.30;100.00
24858;BME280;12935;50.782;6.074;2023-06-10T04:57:55;99329.75;;;18.41;100.00
24858;BME280;12935;50.782;6.074;2023-06-10T05:00:20;99336.13;;;18.50;100.00
24858;BME280;12935;50.782;6.074;2023-06-10T05:02:46;99335.28;;;18.63;100.00
24858;BME280;12935;50.782;6.074;2023-06-10T05:05:16;99336.13;;;18.72;100.00
24858;BME280;12935;50.782;6.074;2023-06-10T05:07:41;99327.09;;;18.81;100.00
24858;BME280;12935;50.782;6.074;2023-06-10T05:10:07;99327.28;;;18.86;99.97
24858;BME280;12935;50.782;6.074;2023-06-10T05:12:32;99327.75;;;18.94;99.28
24858;BME280;12935;50.782;6.074;2023-06-10T05:14:57;99337.81;;;19.01;98.74
24858;BME280;12935;50.782;6.074;2023-06-10T05:17:22;99339.38;;;19.11;97.05
24858;BME280;12935;50.782;6.074;2023-06-10T05:19:48;99338.19;;;19.21;95.89
24858;BME280;12935;50.782;6.074;2023-06-10T05:22:13;99341.13;;;19.26;96.04
24858;BME280;12935;50.782;6.074;2023-06-10T05:24:41;99340.88;;;19.34;95.48
24858;BME280;12935;50.782;6.074;2023-06-10T05:27:06;99340.56;;;19.41;95.09
24858;BME280;12935;50.782;6.074;2023-06-10T05:29:32;99340.75;;;19.46;94.80
24858;BME280;12935;50.782;6.074;2023-06-10T05:31:57;99342.78;;;19.55;94.24
24858;BME280;12935;50.782;6.074;2023-06-10T05:34:25;99331.09;;;19.60;93.13
24858;BME280;12935;50.782;6.074;2023-06-10T05:36:50;99334.66;;;19.70;92.04
24858;BME280;12935;50.782;6.074;2023-06-10T05:39:16;99338.38;;;19.76;90.93
24858;BME280;12935;50.782;6.074;2023-06-10T05:41:41;99339.91;;;19.86;89.80
24858;BME280;12935;50.782;6.074;2023-06-10T05:44:06;99337.63;;;19.93;88.58
24858;BME280;12935;50.782;6.074;2023-06-10T05:46:31;99340.38;;;20.03;87.86
24858;BME280;12935;50.782;6.074;2023-06-10T05:48:57;99339.00;;;20.07;86.77
24858;BME280;12935;50.782;6.074;2023-06-10T05:51:22;99347.03;;;20.14;86.96
24858;BME280;12935;50.782;6.074;2023-06-10T05:53:47;99347.03;;;20.23;85.95
24858;BME280;12935;50.782;6.074;2023-06-10T05:56:14;99352.75;;;20.29;85.75
24858;BME280;12935;50.782;6.074;2023-06-10T05:58:39;99351.63;;;20.36;85.20
24858;BME280;12935;50.782;6.074;2023-06-10T06:01:05;99347.34;;;20.44;84.63
24858;BME280;12935;50.782;6.074;2023-06-10T06:03:30;99358.13;;;20.51;84.18
24858;BME280;12935;50.782;6.074;2023-06-10T06:05:55;99349.50;;;20.58;83.13
24858;BME280;12935;50.782;6.074;2023-06-10T06:08:21;99356.25;;;20.66;82.37
24858;BME280;12935;50.782;6.074;2023-06-10T06:10:46;99353.16;;;20.73;82.33
24858;BME280;12935;50.782;6.074;2023-06-10T06:13:13;99355.59;;;20.80;82.05
24858;BME280;12935;50.782;6.074;2023-06-10T06:15:38;99350.50;;;20.88;82.04
24858;BME280;12935;50.782;6.074;2023-06-10T06:18:03;99359.00;;;20.93;81.84
24858;BME280;12935;50.782;6.074;2023-06-10T06:20:28;99359.09;;;20.99;81.15
24858;BME280;12935;50.782;6.074;2023-06-10T06:22:54;99353.22;;;21.06;81.03
24858;BME280;12935;50.782;6.074;2023-06-10T06:25:19;99358.28;;;21.17;81.16
24858;BME280;12935;50.782;6.074;2023-06-10T06:27:44;99363.22;;;21.22;81.91
24858;BME280;12935;50.782;6.074;2023-06-10T06:30:10;99359.78;;;21.27;81.86
24858;BME280;12935;50.782;6.074;2023-06-10T06:32:36;99348.34;;;21.34;81.50
24858;BME280;12935;50.782;6.074;2023-06-10T06:35:01;99363.44;;;21.42;81.36
24858;BME280;12935;50.782;6.074;2023-06-10T06:37:26;99352.91;;;21.46;82.08
24858;BME280;12935;50.782;6.074;2023-06-10T06:39:53;99358.13;;;21.53;82.21
24858;BME280;12935;50.782;6.074;2023-06-10T06:42:19;99365.34;;;21.60;81.16
24858;BME280;12935;50.782;6.074;2023-06-10T06:44:46;99359.44;;;21.67;79.83
24858;BME280;12935;50.782;6.074;2023-06-10T06:47:11;99359.69;;;21.78;78.83
24858;BME280;12935;50.782;6.074;2023-06-10T06:49:37;99370.75;;;21.87;78.34
24858;BME280;12935;50.782;6.074;2023-06-10T06:52:03;99364.06;;;21.94;77.75
24858;BME280;12935;50.782;6.074;2023-06-10T06:54:28;99364.50;;;22.01;77.70
24858;BME280;12935;50.782;6.074;2023-06-10T06:56:54;99368.16;;;22.08;77.59
24858;BME280;12935;50.782;6.074;2023-06-10T06:59:19;99370.88;;;22.17;76.97
24858;BME280;12935;50.782;6.074;2023-06-10T07:01:46;99369.25;;;22.25;76.60
24858;BME280;12935;50.782;6.074;2023-06-10T07:04:11;99370.91;;;22.31;76.24
24858;BME280;12935;50.782;6.074;2023-06-10T07:06:37;99368.53;;;22.39;76.36
24858;BME280;12935;50.782;6.074;2023-06-10T07:09:03;99367.38;;;22.46;76.54
24858;BME280;12935;50.782;6.074;2023-06-10T07:11:29;99367.47;;;22.51;76.37
24858;BME280;12935;50.782;6.074;2023-06-10T07:13:55;99380.56;;;22.60;75.65
24858;BME280;12935;50.782;6.074;2023-06-10T07:16:20;99366.75;;;22.65;74.91
24858;BME280;12935;50.782;6.074;2023-06-10T07:18:46;99383.34;;;22.74;74.70
24858;BME280;12935;50.782;6.074;2023-06-10T07:21:11;99376.94;;;22.83;74.33
24858;BME280;12935;50.782;6.074;2023-06-10T07:23:37;99380.91;;;22.91;73.13
24858;BME280;12935;50.782;6.074;2023-06-10T07:26:02;99381.25;;;22.99;72.54
24858;BME280;12935;50.782;6.074;2023-06-10T07:28:27;99368.19;;;23.05;72.10
24858;BME280;12935;50.782;6.074;2023-06-10T07:30:53;99370.88;;;23.14;71.95
24858;BME280;12935;50.782;6.074;2023-06-10T07:33:18;99365.19;;;23.23;71.43
24858;BME280;12935;50.782;6.074;2023-06-10T07:35:44;99370.66;;;23.32;71.16
24858;BME280;12935;50.782;6.074;2023-06-10T07:38:09;99381.69;;;23.41;70.03
24858;BME280;12935;50.782;6.074;2023-06-10T07:40:34;99377.25;;;23.50;70.03
24858;BME280;12935;50.782;6.074;2023-06-10T07:43:00;99367.06;;;23.47;69.40
24858;BME280;12935;50.782;6.074;2023-06-10T07:45:25;99384.78;;;23.58;69.05
24858;BME280;12935;50.782;6.074;2023-06-10T07:47:50;99378.56;;;23.69;69.44
24858;BME280;12935;50.782;6.074;2023-06-10T07:50:16;99372.38;;;23.79;68.95
24858;BME280;12935;50.782;6.074;2023-06-10T07:52:41;99375.81;;;23.89;68.30
24858;BME280;12935;50.782;6.074;2023-06-10T07:55:06;99371.63;;;23.99;66.99
24858;BME280;12935;50.782;6.074;2023-06-10T07:57:32;99380.59;;;24.09;66.57
24858;BME280;12935;50.782;6.074;2023-06-10T08:00:02;99370.28;;;24.15;66.32
24858;BME280;12935;50.782;6.074;2023-06-10T08:02:29;99369.66;;;24.26;65.79
24858;BME280;12935;50.782;6.074;2023-06-10T08:04:54;99375.03;;;24.29;66.10
24858;BME280;12935;50.782;6.074;2023-06-10T08:07:19;99375.16;;;24.40;66.06
24858;BME280;12935;50.782;6.074;2023-06-10T08:09:45;99379.13;;;24.54;64.86
24858;BME280;12935;50.782;6.074;2023-06-10T08:12:10;99369.03;;;24.62;63.70
24858;BME280;12935;50.782;6.074;2023-06-10T08:14:36;99371.22;;;24.78;62.73
24858;BME280;12935;50.782;6.074;2023-06-10T08:17:02;99369.78;;;24.89;62.08
24858;BME280;12935;50.782;6.074;2023-06-10T08:19:30;99371.72;;;25.03;61.05
24858;BME280;12935;50.782;6.074;2023-06-10T08:21:55;99370.97;;;25.02;61.13
24858;BME280;12935;50.782;6.074;2023-06-10T08:24:21;99374.63;;;25.14;60.97
24858;BME280;12935;50.782;6.074;2023-06-10T08:26:46;99376.47;;;25.23;62.44
24858;BME280;12935;50.782;6.074;2023-06-10T08:29:12;99389.22;;;25.29;61.65
24858;BME280;12935;50.782;6.074;2023-06-10T08:31:41;99385.50;;;25.43;61.09
24858;BME280;12935;50.782;6.074;2023-06-10T08:34:06;99373.63;;;25.54;59.60
24858;BME280;12935;50.782;6.074;2023-06-10T08:36:32;99387.38;;;25.58;57.25
24858;BME280;12935;50.782;6.074;2023-06-10T08:38:57;99383.41;;;25.64;57.65
24858;BME280;12935;50.782;6.074;2023-06-10T08:41:25;99375.56;;;25.74;57.07
24858;BME280;12935;50.782;6.074;2023-06-10T08:44:11;99383.50;;;25.86;56.43
24858;BME280;12935;50.782;6.074;2023-06-10T08:46:38;99381.19;;;25.85;56.64
24858;BME280;12935;50.782;6.074;2023-06-10T08:49:06;99383.59;;;26.03;56.46
24858;BME280;12935;50.782;6.074;2023-06-10T08:51:35;99388.75;;;26.21;55.93
24858;BME280;12935;50.782;6.074;2023-06-10T08:54:05;99374.81;;;26.33;55.12
24858;BME280;12935;50.782;6.074;2023-06-10T08:56:39;99383.25;;;26.49;53.85
24858;BME280;12935;50.782;6.074;2023-06-10T08:59:05;99383.28;;;26.61;52.70
24858;BME280;12935;50.782;6.074;2023-06-10T09:01:30;99384.84;;;26.73;52.29
24858;BME280;12935;50.782;6.074;2023-06-10T09:03:57;99386.38;;;26.85;52.26
24858;BME280;12935;50.782;6.074;2023-06-10T09:06:25;99379.78;;;26.94;51.41
24858;BME280;12935;50.782;6.074;2023-06-10T09:08:50;99379.28;;;27.06;51.00
24858;BME280;12935;50.782;6.074;2023-06-10T09:11:16;99381.34;;;27.22;49.42
24858;BME280;12935;50.782;6.074;2023-06-10T09:13:42;99371.88;;;27.31;48.48
24858;BME280;12935;50.782;6.074;2023-06-10T09:16:07;99379.50;;;27.47;48.97
24858;BME280;12935;50.782;6.074;2023-06-10T09:18:33;99363.19;;;27.57;48.65
24858;BME280;12935;50.782;6.074;2023-06-10T09:20:59;99375.38;;;27.71;47.81
24858;BME280;12935;50.782;6.074;2023-06-10T09:23:25;99376.13;;;27.82;45.80
24858;BME280;12935;50.782;6.074;2023-06-10T09:25:59;99371.50;;;27.90;45.46
24858;BME280;12935;50.782;6.074;2023-06-10T09:28:25;99371.69;;;28.04;44.52
24858;BME280;12935;50.782;6.074;2023-06-10T09:31:02;99370.16;;;28.14;44.47
24858;BME280;12935;50.782;6.074;2023-06-10T09:33:27;99367.56;;;28.27;43.92
24858;BME280;12935;50.782;6.074;2023-06-10T09:35:53;99370.03;;;28.36;42.62
24858;BME280;12935;50.782;6.074;2023-06-10T09:38:22;99372.31;;;28.43;41.71
24858;BME280;12935;50.782;6.074;2023-06-10T09:40:51;99371.75;;;28.50;42.36
24858;BME280;12935;50.782;6.074;2023-06-10T09:43:17;99377.88;;;28.54;42.42
24858;BME280;12935;50.782;6.074;2023-06-10T09:45:43;99375.03;;;28.60;43.27
24858;BME280;12935;50.782;6.074;2023-06-10T09:48:09;99375.72;;;28.72;43.67
24858;BME280;12935;50.782;6.074;2023-06-10T09:50:34;99378.47;;;28.83;43.39
24858;BME280;12935;50.782;6.074;2023-06-10T09:53:00;99370.25;;;28.90;43.36
24858;BME280;12935;50.782;6.074;2023-06-10T09:55:27;99369.97;;;28.94;43.11
24858;BME280;12935;50.782;6.074;2023-06-10T09:57:53;99380.13;;;29.03;42.93
24858;BME280;12935;50.782;6.074;2023-06-10T10:00:19;99378.44;;;29.18;42.10
24858;BME280;12935;50.782;6.074;2023-06-10T10:02:49;99383.97;;;29.29;42.03
24858;BME280;12935;50.782;6.074;2023-06-10T10:05:17;99378.44;;;29.48;42.34
24858;BME280;12935;50.782;6.074;2023-06-10T10:07:43;99374.78;;;29.59;41.19
24858;BME280;12935;50.782;6.074;2023-06-10T10:10:10;99376.41;;;29.49;39.83
24858;BME280;12935;50.782;6.074;2023-06-10T10:12:38;99381.03;;;29.71;39.54
24858;BME280;12935;50.782;6.074;2023-06-10T10:15:09;99372.31;;;29.74;39.45
24858;BME280;12935;50.782;6.074;2023-06-10T10:17:42;99376.66;;;29.94;39.83
24858;BME280;12935;50.782;6.074;2023-06-10T10:20:12;99362.09;;;30.14;40.32
24858;BME280;12935;50.782;6.074;2023-06-10T10:22:40;99365.53;;;30.26;39.12
24858;BME280;12935;50.782;6.074;2023-06-10T10:25:10;99371.34;;;30.52;39.77
24858;BME280;12935;50.782;6.074;2023-06-10T10:27:43;99369.50;;;30.74;38.41
24858;BME280;12935;50.782;6.074;2023-06-10T10:30:10;99371.16;;;30.82;38.63
24858;BME280;12935;50.782;6.074;2023-06-10T10:32:57;99372.44;;;31.00;37.83
24858;BME280;12935;50.782;6.074;2023-06-10T10:35:24;99372.06;;;31.22;38.02
24858;BME280;12935;50.782;6.074;2023-06-10T10:37:54;99371.00;;;31.25;38.09
24858;BME280;12935;50.782;6.074;2023-06-10T10:40:23;99370.78;;;31.50;37.55
24858;BME280;12935;50.782;6.074;2023-06-10T10:42:50;99374.00;;;31.72;37.91
24858;BME280;12935;50.782;6.074;2023-06-10T10:45:16;99373.44;;;31.87;36.62
24858;BME280;12935;50.782;6.074;2023-06-10T10:47:43;99367.25;;;31.89;37.06
24858;BME280;12935;50.782;6.074;2023-06-10T10:50:14;99363.88;;;32.03;36.16
24858;BME280;12935;50.782;6.074;2023-06-10T10:52:59;99373.84;;;32.31;36.73
24858;BME280;12935;50.782;6.074;2023-06-10T10:55:26;99362.16;;;32.48;35.73
24858;BME280;12935;50.782;6.074;2023-06-10T11:00:34;99369.56;;;32.51;35.47
24858;BME280;12935;50.782;6.074;2023-06-10T11:05:39;99369.13;;;32.81;35.36
24858;BME280;12935;50.782;6.074;2023-06-10T11:08:05;99360.88;;;33.03;35.02
24858;BME280;12935;50.782;6.074;2023-06-10T11:10:36;99355.34;;;32.98;34.21
24858;BME280;12935;50.782;6.074;2023-06-10T11:13:09;99366.88;;;33.21;34.26
24858;BME280;12935;50.782;6.074;2023-06-10T11:16:00;99356.69;;;33.46;33.79
24858;BME280;12935;50.782;6.074;2023-06-10T11:18:26;99362.22;;;33.52;34.09
24858;BME280;12935;50.782;6.074;2023-06-10T11:31:40;99359.75;;;34.20;31.76
24858;BME280;12935;50.782;6.074;2023-06-10T11:34:07;99348.91;;;34.39;31.28
24858;BME280;12935;50.782;6.074;2023-06-10T11:36:37;99346.81;;;34.47;30.84
24858;BME280;12935;50.782;6.074;2023-06-10T11:39:05;99353.69;;;34.60;29.58
24858;BME280;12935;50.782;6.074;2023-06-10T11:41:32;99345.56;;;34.71;29.01
24858;BME280;12935;50.782;6.074;2023-06-10T11:44:03;99339.38;;;34.88;29.20
24858;BME280;12935;50.782;6.074;2023-06-10T11:46:29;99342.97;;;34.89;29.70
24858;BME280;12935;50.782;6.074;2023-06-10T11:48:56;99333.94;;;34.39;29.36
24858;BME280;12935;50.782;6.074;2023-06-10T11:51:25;99337.59;;;34.55;29.80
24858;BME280;12935;50.782;6.074;2023-06-10T11:53:50;99348.28;;;34.92;29.34
24858;BME280;12935;50.782;6.074;2023-06-10T11:56:21;99342.97;;;35.11;28.84
24858;BME280;12935;50.782;6.074;2023-06-10T11:58:58;99339.94;;;35.32;28.11
24858;BME280;12935;50.782;6.074;2023-06-10T12:01:26;99318.16;;;34.97;26.50
24858;BME280;12935;50.782;6.074;2023-06-10T12:03:58;99322.91;;;34.87;28.17
24858;BME280;12935;50.782;6.074;2023-06-10T12:06:24;99334.28;;;35.09;28.87
24858;BME280;12935;50.782;6.074;2023-06-10T12:08:49;99331.25;;;35.38;26.99
24858;BME280;12935;50.782;6.074;2023-06-10T12:11:15;99326.31;;;35.00;27.36
24858;BME280;12935;50.782;6.074;2023-06-10T12:13:48;99333.69;;;35.34;27.90
24858;BME280;12935;50.782;6.074;2023-06-10T12:16:15;99331.94;;;35.69;26.72
24858;BME280;12935;50.782;6.074;2023-06-10T12:18:42;99333.19;;;35.91;26.13
24858;BME280;12935;50.782;6.074;2023-06-10T12:21:23;99322.75;;;36.01;26.27
24858;BME280;12935;50.782;6.074;2023-06-10T12:24:08;99325.31;;;35.59;24.56
24858;BME280;12935;50.782;6.074;2023-06-10T12:26:44;99321.91;;;34.61;26.11
24858;BME280;12935;50.782;6.074;2023-06-10T12:29:22;99325.56;;;34.92;27.25
24858;BME280;12935;50.782;6.074;2023-06-10T12:34:18;99317.00;;;35.15;26.50
24858;BME280;12935;50.782;6.074;2023-06-10T12:36:48;99311.72;;;34.96;27.52
24858;BME280;12935;50.782;6.074;2023-06-10T12:39:14;99320.22;;;35.42;27.05
24858;BME280;12935;50.782;6.074;2023-06-10T12:41:39;99324.34;;;35.79;26.29
24858;BME280;12935;50.782;6.074;2023-06-10T12:44:05;99311.66;;;36.20;25.49
24858;BME280;12935;50.782;6.074;2023-06-10T12:46:37;99303.66;;;36.34;25.30
24858;BME280;12935;50.782;6.074;2023-06-10T12:49:02;99311.38;;;35.93;24.35
24858;BME280;12935;50.782;6.074;2023-06-10T12:51:27;99310.28;;;35.89;25.91
24858;BME280;12935;50.782;6.074;2023-06-10T12:53:53;99300.66;;;35.69;27.08
24858;BME280;12935;50.782;6.074;2023-06-10T12:56:18;99298.34;;;36.22;26.35
24858;BME280;12935;50.782;6.074;2023-06-10T12:58:43;99312.50;;;36.45;25.93
24858;BME280;12935;50.782;6.074;2023-06-10T13:01:09;99310.38;;;36.78;26.05
24858;BME280;12935;50.782;6.074;2023-06-10T13:03:34;99313.25;;;36.78;24.96
24858;BME280;12935;50.782;6.074;2023-06-10T13:05:59;99312.06;;;37.06;24.56
24858;BME280;12935;50.782;6.074;2023-06-10T13:08:25;99291.84;;;37.37;23.82
24858;BME280;12935;50.782;6.074;2023-06-10T13:10:50;99298.38;;;37.30;24.79
24858;BME280;12935;50.782;6.074;2023-06-10T13:13:15;99308.00;;;37.34;24.42
24858;BME280;12935;50.782;6.074;2023-06-10T13:15:41;99303.66;;;37.50;23.51
24858;BME280;12935;50.782;6.074;2023-06-10T13:18:06;99301.84;;;36.78;24.64
24858;BME280;12935;50.782;6.074;2023-06-10T13:20:32;99296.56;;;36.42;24.71
24858;BME280;12935;50.782;6.074;2023-06-10T13:22:57;99295.78;;;38.37;23.72